createdAt,value
2022-12-15T00:01:42.517Z,16.02
2022-12-15T00:04:27.891Z,16.58
2022-12-15T00:07:13.038Z,15.68
2022-12-15T00:09:57.803Z,15.57
2022-12-15T00:12:42.855Z,15.55
2022-12-15T00:15:28.221Z,15.68
2022-12-15T00:18:13.954Z,15.82
2022-12-15T00:20:59.300Z,16.17
2022-12-15T00:23:44.990Z,14.88
2022-12-15T00:26:30.503Z,15.20
2022-12-15T00:29:15.257Z,14.85
2022-12-15T00:32:00.292Z,14.93
2022-12-15T00:34:45.299Z,15.70
2022-12-15T00:37:30.490Z,14.77
2022-12-15T00:40:04.631Z,15.07
2022-12-15T00:42:31.234Z,15.00
2022-12-15T00:44:59.152Z,15.32
2022-12-15T00:47:25.799Z,14.43
2022-12-15T00:50:11.054Z,15.18
2022-12-15T00:52:55.779Z,14.52
2022-12-15T00:55:40.677Z,15.20
2022-12-15T00:58:25.504Z,15.43
2022-12-15T01:01:10.417Z,16.50
2022-12-15T01:03:55.263Z,15.38
2022-12-15T01:06:41.072Z,15.00
2022-12-15T01:09:28.985Z,15.88
2022-12-15T01:12:14.395Z,15.48
2022-12-15T01:14:59.955Z,15.25
2022-12-15T01:17:45.144Z,15.75
2022-12-15T01:20:34.779Z,15.30
2022-12-15T01:23:01.322Z,14.38
2022-12-15T01:25:28.024Z,14.00
2022-12-15T01:27:54.933Z,16.20
2022-12-15T01:30:26.432Z,14.85
2022-12-15T01:32:53.500Z,14.73
2022-12-15T01:35:21.078Z,14.88
2022-12-15T01:37:49.962Z,15.15
2022-12-15T01:40:37.696Z,15.50
2022-12-15T01:43:04.350Z,16.60
2022-12-15T01:45:30.665Z,15.82
2022-12-15T01:48:03.351Z,16.50
2022-12-15T01:50:32.753Z,14.70
2022-12-15T01:52:59.491Z,16.35
2022-12-15T01:55:30.230Z,15.13
2022-12-15T01:58:03.064Z,14.38
2022-12-15T02:00:35.565Z,15.45
2022-12-15T02:03:09.189Z,15.52
2022-12-15T02:05:36.766Z,15.75
2022-12-15T02:08:04.927Z,15.20
2022-12-15T02:11:00.933Z,16.63
2022-12-15T02:13:52.100Z,15.50
2022-12-15T02:16:43.509Z,15.23
2022-12-15T02:19:43.640Z,15.10
2022-12-15T02:22:47.249Z,15.77
2022-12-15T02:25:22.859Z,15.88
2022-12-15T02:28:01.364Z,16.42
2022-12-15T02:31:11.542Z,14.75
2022-12-15T02:33:46.299Z,16.17
2022-12-15T02:36:23.430Z,15.70
2022-12-15T02:38:49.854Z,16.08
2022-12-15T02:41:39.917Z,15.80
2022-12-15T02:44:17.469Z,15.38
2022-12-15T02:47:15.012Z,16.63
2022-12-15T02:50:42.074Z,15.13
2022-12-15T02:53:23.705Z,16.25
2022-12-15T02:56:08.347Z,15.73
2022-12-15T02:59:15.183Z,15.05
2022-12-15T03:01:51.984Z,16.83
2022-12-15T03:04:19.698Z,17.17
2022-12-15T03:07:00.567Z,15.85
2022-12-15T03:09:27.772Z,15.65
2022-12-15T03:11:54.575Z,17.33
2022-12-15T03:14:21.152Z,15.15
2022-12-15T03:16:47.738Z,16.55
2022-12-15T03:19:14.228Z,17.13
2022-12-15T03:21:40.639Z,15.25
2022-12-15T03:24:07.358Z,15.13
2022-12-15T03:26:33.757Z,16.10
2022-12-15T03:29:00.358Z,15.93
2022-12-15T03:31:26.932Z,16.00
2022-12-15T03:33:53.811Z,15.80
2022-12-15T03:36:20.471Z,15.85
2022-12-15T03:38:47.060Z,16.63
2022-12-15T03:41:13.457Z,16.98
2022-12-15T03:43:39.884Z,17.33
2022-12-15T03:46:06.315Z,16.80
2022-12-15T03:48:33.445Z,15.48
2022-12-15T03:50:59.844Z,15.65
2022-12-15T03:53:26.381Z,16.52
2022-12-15T03:55:52.791Z,16.13
2022-12-15T03:58:19.606Z,15.93
2022-12-15T04:00:45.984Z,14.55
2022-12-15T04:03:12.636Z,15.25
2022-12-15T04:05:39.307Z,16.83
2022-12-15T04:08:05.808Z,14.90
2022-12-15T04:10:35.315Z,17.70
2022-12-15T04:13:12.064Z,15.80
2022-12-15T04:15:39.896Z,16.02
2022-12-15T04:18:10.065Z,15.77
2022-12-15T04:20:38.062Z,16.40
2022-12-15T04:23:07.634Z,15.68
2022-12-15T04:25:53.496Z,16.83
2022-12-15T04:28:38.869Z,14.73
2022-12-15T04:31:40.412Z,15.90
2022-12-15T04:34:29.268Z,15.85
2022-12-15T04:37:14.785Z,15.95
2022-12-15T04:40:05.303Z,16.60
2022-12-15T04:42:52.469Z,15.23
2022-12-15T04:45:41.329Z,15.55
2022-12-15T04:48:26.829Z,15.15
2022-12-15T04:51:12.027Z,16.13
2022-12-15T04:53:57.137Z,14.90
2022-12-15T04:56:41.954Z,14.88
2022-12-15T04:59:26.861Z,15.93
2022-12-15T05:02:11.793Z,16.38
2022-12-15T05:04:56.984Z,16.00
2022-12-15T05:07:43.957Z,15.43
2022-12-15T05:10:29.253Z,13.98
2022-12-15T05:13:14.357Z,15.88
2022-12-15T05:15:59.187Z,19.75
2022-12-15T05:18:44.382Z,14.95
2022-12-15T05:21:29.300Z,15.85
2022-12-15T05:24:14.352Z,15.32
2022-12-15T05:27:03.354Z,15.55
2022-12-15T05:29:48.288Z,15.18
2022-12-15T05:32:14.674Z,15.13
2022-12-15T05:34:41.877Z,14.82
2022-12-15T05:37:08.266Z,15.75
2022-12-15T05:39:38.117Z,14.80
2022-12-15T05:42:04.769Z,15.30
2022-12-15T05:44:31.159Z,14.93
2022-12-15T05:46:57.551Z,14.85
2022-12-15T05:49:23.942Z,15.95
2022-12-15T05:51:50.357Z,15.25
2022-12-15T05:54:18.652Z,14.85
2022-12-15T05:56:46.832Z,15.23
2022-12-15T05:59:17.198Z,15.63
2022-12-15T06:01:43.818Z,15.40
2022-12-15T06:04:12.745Z,14.13
2022-12-15T06:06:40.014Z,13.90
2022-12-15T06:09:06.479Z,14.07
2022-12-15T06:11:32.899Z,14.35
2022-12-15T06:13:59.316Z,15.05
2022-12-15T06:16:28.169Z,16.13
2022-12-15T06:19:00.001Z,16.75
2022-12-15T06:21:29.460Z,14.85
2022-12-15T06:23:56.825Z,15.77
2022-12-15T06:26:30.873Z,14.40
2022-12-15T06:28:59.462Z,14.35
2022-12-15T06:31:26.669Z,14.77
2022-12-15T06:34:00.920Z,17.42
2022-12-15T06:36:28.685Z,16.52
2022-12-15T06:39:05.589Z,17.17
2022-12-15T06:41:32.569Z,17.10
2022-12-15T06:44:00.025Z,16.50
2022-12-15T06:46:28.100Z,17.73
2022-12-15T06:48:55.407Z,16.45
2022-12-15T06:51:23.631Z,15.95
2022-12-15T06:53:53.934Z,16.02
2022-12-15T06:56:28.926Z,16.35
2022-12-15T06:58:59.608Z,16.98
2022-12-15T07:01:26.765Z,16.92
2022-12-15T07:03:54.190Z,15.48
2022-12-15T07:06:21.084Z,17.55
2022-12-15T07:08:53.753Z,15.35
2022-12-15T07:11:21.994Z,16.23
2022-12-15T07:13:52.776Z,15.98
2022-12-15T07:16:21.070Z,16.17
2022-12-15T07:18:47.544Z,18.10
2022-12-15T07:21:14.140Z,15.68
2022-12-15T07:23:53.930Z,15.93
2022-12-15T07:26:20.949Z,14.57
2022-12-15T07:28:47.389Z,16.40
2022-12-15T07:31:13.889Z,14.90
2022-12-15T07:33:40.533Z,17.67
2022-12-15T07:36:08.436Z,16.35
2022-12-15T07:38:35.583Z,17.95
2022-12-15T07:41:04.372Z,17.10
2022-12-15T07:43:31.523Z,16.98
2022-12-15T07:45:58.941Z,14.77
2022-12-15T07:48:25.502Z,17.27
2022-12-15T07:51:02.941Z,17.17
2022-12-15T07:53:33.578Z,16.98
2022-12-15T07:56:09.576Z,17.02
2022-12-15T07:58:37.452Z,16.08
2022-12-15T08:01:07.003Z,17.35
2022-12-15T08:03:35.731Z,17.73
2022-12-15T08:06:12.214Z,16.02
2022-12-15T08:08:39.671Z,14.85
2022-12-15T08:11:07.894Z,16.85
2022-12-15T08:16:21.434Z,17.63
2022-12-15T08:18:49.032Z,16.40
2022-12-15T08:21:15.654Z,16.58
2022-12-15T08:23:42.084Z,17.25
2022-12-15T08:26:12.059Z,17.50
2022-12-15T08:28:39.961Z,15.30
2022-12-15T08:31:08.798Z,16.33
2022-12-15T08:33:36.195Z,15.52
2022-12-15T08:36:05.334Z,15.73
2022-12-15T08:38:33.376Z,16.10
2022-12-15T08:41:11.290Z,15.45
2022-12-15T08:43:44.038Z,16.00
2022-12-15T08:46:14.981Z,18.10
2022-12-15T08:48:42.122Z,18.60
2022-12-15T08:51:09.722Z,17.05
2022-12-15T08:53:36.502Z,16.77
2022-12-15T08:56:12.177Z,16.63
2022-12-15T08:58:39.599Z,17.95
2022-12-15T09:01:08.516Z,19.65
2022-12-15T09:03:36.404Z,19.85
2022-12-15T09:06:04.623Z,20.67
2022-12-15T09:08:31.528Z,19.65
2022-12-15T09:10:58.810Z,20.63
2022-12-15T09:13:25.919Z,20.55
2022-12-15T09:16:09.436Z,21.05
2022-12-15T09:18:36.562Z,19.80
2022-12-15T09:21:05.234Z,20.20
2022-12-15T09:23:32.286Z,19.92
2022-12-15T09:26:07.406Z,20.27
2022-12-15T09:28:34.788Z,19.83
2022-12-15T09:31:09.508Z,19.80
2022-12-15T09:33:36.797Z,20.20
2022-12-15T09:36:04.699Z,21.30
2022-12-15T09:38:33.852Z,19.52
2022-12-15T09:41:15.329Z,20.92
2022-12-15T09:43:52.441Z,19.75
2022-12-15T09:46:34.871Z,20.55
2022-12-15T09:49:06.393Z,20.52
2022-12-15T09:51:39.216Z,20.38
2022-12-15T09:54:06.771Z,20.55
2022-12-15T09:56:42.433Z,19.38
2022-12-15T09:59:29.034Z,20.75
2022-12-15T10:02:13.982Z,20.17
2022-12-15T10:04:47.403Z,20.38
2022-12-15T10:07:39.562Z,16.48
2022-12-15T10:10:51.098Z,16.45
2022-12-15T10:13:27.374Z,18.05
2022-12-15T10:16:00.724Z,17.67
2022-12-15T10:18:37.274Z,20.08
2022-12-15T10:21:03.982Z,18.05
2022-12-15T10:23:34.266Z,18.40
2022-12-15T10:26:21.027Z,17.90
2022-12-15T10:29:13.091Z,18.48
2022-12-15T10:31:53.244Z,17.58
2022-12-15T10:34:33.669Z,18.35
2022-12-15T10:37:00.330Z,18.95
2022-12-15T10:39:42.815Z,18.20
2022-12-15T10:42:11.492Z,17.63
2022-12-15T10:44:41.395Z,19.10
2022-12-15T10:47:31.582Z,18.83
2022-12-15T10:50:24.774Z,17.67
2022-12-15T10:52:51.921Z,18.35
2022-12-15T10:55:38.189Z,19.55
2022-12-15T10:58:17.697Z,17.10
2022-12-15T11:00:46.612Z,17.27
2022-12-15T11:03:26.448Z,18.42
2022-12-15T11:05:55.205Z,18.30
2022-12-15T11:08:22.979Z,19.17
2022-12-15T11:11:14.220Z,17.13
2022-12-15T11:13:41.965Z,18.17
2022-12-15T11:16:17.173Z,17.42
2022-12-15T11:18:56.461Z,18.60
2022-12-15T11:21:27.858Z,18.90
2022-12-15T11:24:13.747Z,20.15
2022-12-15T11:26:56.702Z,19.58
2022-12-15T11:29:23.560Z,18.97
2022-12-15T11:31:52.323Z,18.17
2022-12-15T11:34:25.975Z,17.52
2022-12-15T11:40:08.611Z,17.00
2022-12-15T11:43:00.663Z,16.92
2022-12-15T11:45:47.425Z,17.92
2022-12-15T11:48:19.481Z,19.35
2022-12-15T11:50:56.093Z,20.02
2022-12-15T11:53:41.071Z,19.83
2022-12-15T11:56:33.855Z,17.73
2022-12-15T11:59:28.031Z,17.95
2022-12-15T12:02:18.212Z,19.70
2022-12-15T12:05:01.313Z,17.65
2022-12-15T12:07:45.123Z,18.38
2022-12-15T12:10:20.849Z,18.50
2022-12-15T12:13:30.615Z,19.83
2022-12-15T12:16:29.231Z,24.63
2022-12-15T12:19:02.701Z,16.95
2022-12-15T12:21:36.933Z,19.27
2022-12-15T12:24:30.355Z,21.35
2022-12-15T12:27:16.592Z,23.48
2022-12-15T12:29:51.237Z,24.10
2022-12-15T12:32:36.924Z,22.35
2022-12-15T12:35:30.848Z,23.88
2022-12-15T12:38:07.672Z,20.98
2022-12-15T12:40:51.231Z,19.52
2022-12-15T12:43:40.235Z,20.60
2022-12-15T12:46:15.081Z,20.02
2022-12-15T12:48:44.128Z,18.95
2022-12-15T12:51:38.991Z,19.58
2022-12-15T12:54:37.044Z,19.25
2022-12-15T12:57:12.563Z,23.00
2022-12-15T12:59:43.717Z,25.27
2022-12-15T13:02:22.304Z,21.10
2022-12-15T13:05:05.032Z,23.95
2022-12-15T13:07:39.065Z,19.98
2022-12-15T13:10:18.095Z,22.27
2022-12-15T13:12:53.567Z,20.35
2022-12-15T13:15:29.314Z,18.35
2022-12-15T13:18:04.803Z,19.10
2022-12-15T13:20:33.695Z,19.67
2022-12-15T13:23:22.121Z,18.27
2022-12-15T13:25:57.517Z,18.33
2022-12-15T13:28:43.147Z,18.55
2022-12-15T13:31:21.775Z,17.67
2022-12-15T13:33:51.213Z,18.13
2022-12-15T13:36:36.631Z,19.55
2022-12-15T13:39:23.247Z,20.25
2022-12-15T13:42:32.589Z,18.67
2022-12-15T13:44:48.689Z,16.42
2022-12-15T13:47:22.329Z,17.35
2022-12-15T13:50:02.265Z,18.33
2022-12-15T13:53:18.798Z,19.40
2022-12-15T13:55:52.480Z,19.65
2022-12-15T13:58:21.613Z,17.65
2022-12-15T14:00:51.942Z,17.85
2022-12-15T14:03:18.415Z,17.67
2022-12-15T14:05:50.142Z,17.88
2022-12-15T14:08:19.002Z,19.52
2022-12-15T14:10:50.865Z,29.77
2022-12-15T14:13:24.400Z,31.83
2022-12-15T14:15:53.023Z,22.77
2022-12-15T14:18:32.322Z,21.55
2022-12-15T14:21:00.880Z,20.75
2022-12-15T14:23:52.509Z,21.58
2022-12-15T14:26:30.920Z,21.52
2022-12-15T14:29:06.062Z,20.73
2022-12-15T14:31:33.055Z,20.38
2022-12-15T14:34:11.964Z,21.05
2022-12-15T14:36:41.770Z,23.45
2022-12-15T14:39:19.485Z,25.92
2022-12-15T14:41:50.552Z,25.17
2022-12-15T14:44:31.537Z,23.67
2022-12-15T14:47:08.426Z,22.60
2022-12-15T14:49:45.681Z,21.90
2022-12-15T14:52:30.430Z,21.20
2022-12-15T14:54:59.849Z,21.35
2022-12-15T14:57:29.200Z,21.70
2022-12-15T14:59:55.790Z,20.73
2022-12-15T15:02:26.910Z,21.98
2022-12-15T15:05:04.071Z,22.23
2022-12-15T15:07:35.213Z,24.45
2022-12-15T15:10:03.853Z,30.75
2022-12-15T15:12:47.134Z,32.20
2022-12-15T15:15:19.528Z,32.88
2022-12-15T15:17:52.826Z,29.85
2022-12-15T15:20:27.035Z,29.30
2022-12-15T15:23:22.895Z,29.00
2022-12-15T15:25:50.697Z,30.30
2022-12-15T15:28:20.055Z,27.25
2022-12-15T15:30:56.430Z,27.50
2022-12-15T15:33:27.186Z,28.35
2022-12-15T15:35:59.557Z,27.42
2022-12-15T15:38:35.022Z,31.38
2022-12-15T15:41:15.557Z,28.70
2022-12-15T15:43:42.666Z,27.90
2022-12-15T15:46:18.158Z,26.77
2022-12-15T15:48:48.804Z,23.63
2022-12-15T15:51:15.296Z,23.13
2022-12-15T15:53:41.846Z,24.88
2022-12-15T15:56:16.105Z,25.83
2022-12-15T15:58:46.637Z,26.88
2022-12-15T16:01:13.850Z,26.63
2022-12-15T16:03:40.936Z,25.23
2022-12-15T16:06:19.996Z,24.50
2022-12-15T16:08:53.761Z,25.50
2022-12-15T16:11:22.149Z,26.13
2022-12-15T16:13:48.905Z,26.63
2022-12-15T16:16:19.052Z,25.60
2022-12-15T16:18:46.032Z,25.60
2022-12-15T16:21:16.803Z,24.20
2022-12-15T16:23:45.977Z,22.65
2022-12-15T16:26:16.645Z,22.77
2022-12-15T16:28:43.309Z,24.73
2022-12-15T16:31:24.581Z,26.05
2022-12-15T16:33:51.117Z,26.95
2022-12-15T16:36:17.727Z,35.25
2022-12-15T16:38:44.377Z,35.03
2022-12-15T16:41:15.474Z,34.33
2022-12-15T16:43:47.940Z,33.42
2022-12-15T16:46:15.404Z,32.22
2022-12-15T16:48:42.849Z,30.55
2022-12-15T16:51:18.231Z,29.17
2022-12-15T16:53:45.560Z,29.58
2022-12-15T16:56:14.324Z,29.08
2022-12-15T16:58:41.775Z,26.77
2022-12-15T17:01:10.056Z,24.00
2022-12-15T17:03:36.687Z,25.27
2022-12-15T17:06:06.494Z,24.60
2022-12-15T17:08:44.898Z,23.02
2022-12-15T17:11:18.394Z,23.10
2022-12-15T17:16:14.937Z,26.17
2022-12-15T17:18:42.970Z,27.95
2022-12-15T17:21:15.796Z,27.63
2022-12-15T17:23:44.790Z,27.88
2022-12-15T17:26:27.459Z,24.27
2022-12-15T17:31:23.741Z,23.00
2022-12-15T17:33:50.369Z,24.98
2022-12-15T17:36:27.633Z,24.83
2022-12-15T17:39:03.201Z,26.88
2022-12-15T17:41:58.046Z,24.52
2022-12-15T17:44:36.946Z,23.67
2022-12-15T17:47:06.179Z,27.05
2022-12-15T17:49:36.023Z,25.80
2022-12-15T17:52:18.998Z,25.65
2022-12-15T17:54:45.441Z,24.63
2022-12-15T17:57:12.505Z,24.77
2022-12-15T17:59:39.028Z,24.83
2022-12-15T18:02:06.032Z,25.42
2022-12-15T18:04:32.591Z,27.08
2022-12-15T18:07:02.148Z,24.48
2022-12-15T18:09:29.381Z,26.10
2022-12-15T18:11:55.785Z,24.55
2022-12-15T18:14:22.949Z,27.90
2022-12-15T18:16:49.749Z,28.80
2022-12-15T18:19:16.232Z,28.98
2022-12-15T18:21:42.898Z,29.10
2022-12-15T18:24:17.297Z,30.35
2022-12-15T18:26:44.115Z,31.20
2022-12-15T18:29:17.632Z,31.88
2022-12-15T18:31:46.933Z,29.77
2022-12-15T18:34:18.278Z,30.40
2022-12-15T18:36:44.984Z,30.00
2022-12-15T18:39:26.252Z,30.95
2022-12-15T18:41:55.108Z,29.98
2022-12-15T18:44:26.350Z,29.55
2022-12-15T18:46:53.294Z,32.80
2022-12-15T18:49:22.199Z,31.98
2022-12-15T18:51:48.784Z,29.98
2022-12-15T18:54:21.276Z,26.40
2022-12-15T18:56:47.979Z,27.90
2022-12-15T18:59:16.438Z,28.10
2022-12-15T19:01:48.180Z,30.38
2022-12-15T19:04:15.320Z,31.60
2022-12-15T19:06:42.342Z,29.50
2022-12-15T19:09:18.651Z,30.25
2022-12-15T19:12:16.559Z,30.38
2022-12-15T19:14:43.863Z,29.92
2022-12-15T19:17:36.693Z,31.65
2022-12-15T19:20:24.681Z,28.70
2022-12-15T19:22:52.196Z,30.13
2022-12-15T19:25:26.637Z,30.67
2022-12-15T19:27:59.683Z,29.42
2022-12-15T19:30:36.941Z,29.52
2022-12-15T19:33:07.964Z,32.00
2022-12-15T19:35:34.779Z,32.47
2022-12-15T19:38:03.177Z,31.00
2022-12-15T19:40:32.457Z,30.60
2022-12-15T19:43:00.272Z,30.45
2022-12-15T19:45:30.062Z,29.05
2022-12-15T19:47:56.616Z,31.35
2022-12-15T19:50:27.458Z,29.52
2022-12-15T19:53:02.254Z,29.77
2022-12-15T19:55:32.973Z,31.42
2022-12-15T19:57:59.790Z,30.38
2022-12-15T20:00:27.301Z,31.88
2022-12-15T20:02:55.017Z,29.48
2022-12-15T20:05:24.494Z,30.35
2022-12-15T20:07:54.914Z,32.72
2022-12-15T20:10:31.771Z,31.13
2022-12-15T20:13:00.192Z,29.58
2022-12-15T20:15:26.688Z,30.58
2022-12-15T20:17:57.216Z,34.22
2022-12-15T20:20:27.035Z,32.92
2022-12-15T20:22:56.559Z,35.17
2022-12-15T20:25:27.155Z,33.22
2022-12-15T20:27:54.238Z,33.25
2022-12-15T20:30:26.831Z,31.05
2022-12-15T20:32:54.630Z,30.67
2022-12-15T20:35:22.498Z,33.10
2022-12-15T20:37:50.093Z,32.80
2022-12-15T20:40:28.190Z,33.80
2022-12-15T20:42:56.068Z,35.60
2022-12-15T20:45:26.690Z,35.53
2022-12-15T20:47:55.783Z,35.50
2022-12-15T20:50:49.028Z,36.88
2022-12-15T20:53:25.320Z,37.38
2022-12-15T20:55:53.731Z,35.92
2022-12-15T20:58:21.017Z,35.92
2022-12-15T21:00:49.318Z,36.15
2022-12-15T21:03:19.818Z,33.38
2022-12-15T21:05:50.611Z,33.38
2022-12-15T21:08:25.930Z,35.63
2022-12-15T21:10:54.167Z,33.60
2022-12-15T21:13:31.543Z,34.20
2022-12-15T21:15:58.334Z,35.22
2022-12-15T21:21:29.446Z,34.30
2022-12-15T21:23:57.793Z,32.15
2022-12-15T21:26:28.972Z,33.15
2022-12-15T21:28:59.067Z,31.85
2022-12-15T21:31:26.084Z,33.00
2022-12-15T21:33:52.724Z,31.77
2022-12-15T21:36:22.001Z,30.58
2022-12-15T21:38:51.813Z,33.10
2022-12-15T21:41:22.089Z,32.28
2022-12-15T21:43:49.614Z,30.05
2022-12-15T21:46:20.537Z,27.67
2022-12-15T21:49:08.329Z,28.65
2022-12-15T21:51:37.709Z,28.88
2022-12-15T21:54:05.524Z,29.65
2022-12-15T21:56:32.157Z,27.77
2022-12-15T21:58:59.054Z,30.88
2022-12-15T22:01:29.761Z,31.25
2022-12-15T22:03:58.502Z,31.48
2022-12-15T22:06:27.842Z,31.77
2022-12-15T22:09:00.941Z,33.45
2022-12-15T22:11:30.051Z,31.60
2022-12-15T22:13:58.716Z,32.15
2022-12-15T22:16:25.345Z,32.72
2022-12-15T22:18:56.837Z,29.10
2022-12-15T22:21:24.259Z,28.85
2022-12-15T22:23:51.279Z,28.10
2022-12-15T22:26:31.198Z,28.15
2022-12-15T22:29:00.981Z,27.40
2022-12-15T22:31:28.248Z,25.70
2022-12-15T22:33:55.709Z,26.88
2022-12-15T22:36:22.141Z,27.85
2022-12-15T22:38:48.543Z,26.52
2022-12-15T22:41:22.306Z,27.00
2022-12-15T22:43:55.019Z,25.80
2022-12-15T22:46:24.055Z,29.60
2022-12-15T22:48:52.936Z,28.15
2022-12-15T22:51:21.748Z,29.98
2022-12-15T22:53:49.227Z,31.15
2022-12-15T22:56:27.723Z,30.17
2022-12-15T22:59:00.841Z,31.45
2022-12-15T23:01:27.972Z,35.20
2022-12-15T23:03:54.646Z,35.88
2022-12-15T23:06:23.605Z,36.38
2022-12-15T23:08:55.994Z,37.47
2022-12-15T23:11:39.651Z,36.55
2022-12-15T23:14:09.592Z,33.45
2022-12-15T23:16:37.310Z,32.38
2022-12-15T23:19:04.542Z,32.80
2022-12-15T23:21:31.100Z,30.13
2022-12-15T23:23:57.833Z,28.83
2022-12-15T23:26:26.027Z,30.70
2022-12-15T23:28:53.860Z,30.23
2022-12-15T23:31:22.095Z,29.58
2022-12-15T23:33:48.601Z,29.52
2022-12-15T23:36:16.135Z,28.83
2022-12-15T23:38:42.848Z,27.83
2022-12-15T23:41:15.672Z,26.35
2022-12-15T23:43:42.096Z,27.33
2022-12-15T23:46:08.677Z,23.15
2022-12-15T23:48:38.601Z,25.38
2022-12-15T23:51:08.678Z,25.50
2022-12-15T23:53:36.397Z,24.92
2022-12-15T23:56:10.780Z,25.52
2022-12-15T23:58:39.416Z,23.52
